Villanueva, Argentina
Current Conditions -  °F | °C
As of 10:00 AM on Friday 24 Oct 2014 (Local Time) from SAEZ Reporting Station
Clear Clear  
Wind Chill: 26°   Ceiling: Unl
Heat Index: 27°   Visibility: 4mi
Dew Point: 20°   Wind: 6mph
Humidity: 69%   Direction: 70°ENE
Pressure: 30"   Gusts: NA
Location:  35.67°S, 58.43°W
Report Text: SAEZ 241300Z 07005KT 040V110 7000 NSC 26/20 Q1016
Loading
Personal Weather Stations






























Interactive Weather Map
Tropical Storm Tracking
New forecast layout! Learn more

10-Day Weather Forecast

Advertisements
Track Severe Weather on mobile